createdAt,value
2023-02-17T00:00:27.513Z,0.00
2023-02-17T00:01:27.496Z,0.00
2023-02-17T00:02:27.515Z,0.00
2023-02-17T00:03:27.493Z,0.00
2023-02-17T00:04:27.450Z,0.00
2023-02-17T00:05:27.435Z,0.00
2023-02-17T00:06:27.421Z,0.00
2023-02-17T00:07:27.404Z,0.00
2023-02-17T00:08:27.385Z,0.00
2023-02-17T00:09:27.369Z,0.00
2023-02-17T00:10:27.349Z,0.00
2023-02-17T00:11:27.335Z,0.00
2023-02-17T00:12:27.323Z,0.00
2023-02-17T00:13:27.312Z,0.00
2023-02-17T00:14:27.287Z,0.00
2023-02-17T00:15:27.267Z,0.00
2023-02-17T00:16:27.255Z,0.00
2023-02-17T00:17:27.235Z,0.00
2023-02-17T00:18:27.220Z,0.00
2023-02-17T00:19:27.218Z,0.00
2023-02-17T00:20:27.185Z,0.00
2023-02-17T00:21:27.180Z,0.00
2023-02-17T00:22:27.154Z,0.00
2023-02-17T00:23:27.135Z,0.00
2023-02-17T00:24:27.120Z,0.00
2023-02-17T00:25:27.103Z,0.00
2023-02-17T00:26:27.100Z,0.00
2023-02-17T00:27:27.080Z,0.00
2023-02-17T00:28:27.059Z,0.00
2023-02-17T00:29:27.044Z,0.00
2023-02-17T00:30:27.096Z,0.00
2023-02-17T00:31:27.117Z,0.00
2023-02-17T00:32:26.992Z,0.00
2023-02-17T00:33:26.977Z,0.00
2023-02-17T00:34:26.959Z,0.00
2023-02-17T00:35:26.946Z,0.00
2023-02-17T00:36:26.932Z,0.00
2023-02-17T00:37:26.951Z,0.00
2023-02-17T00:38:26.899Z,0.00
2023-02-17T00:39:26.886Z,0.00
2023-02-17T00:40:26.870Z,0.00
2023-02-17T00:41:26.863Z,0.00
2023-02-17T00:42:26.834Z,0.00
2023-02-17T00:43:26.816Z,0.00
2023-02-17T00:44:26.804Z,0.00
2023-02-17T00:45:26.787Z,0.00
2023-02-17T00:46:26.856Z,0.00
2023-02-17T00:47:26.759Z,0.00
2023-02-17T00:48:26.780Z,0.00
2023-02-17T00:49:26.721Z,0.00
2023-02-17T00:50:26.701Z,0.00
2023-02-17T00:51:26.726Z,0.00
2023-02-17T00:52:26.669Z,0.00
2023-02-17T00:53:26.658Z,0.00
2023-02-17T00:54:26.639Z,0.00
2023-02-17T00:55:26.640Z,0.00
2023-02-17T00:56:26.604Z,0.00
2023-02-17T00:57:26.595Z,0.00
2023-02-17T00:58:26.576Z,0.00
2023-02-17T00:59:26.569Z,0.00
2023-02-17T01:00:26.541Z,0.00
2023-02-17T01:01:26.561Z,0.00
2023-02-17T01:02:26.508Z,0.00
2023-02-17T01:03:26.488Z,0.00
2023-02-17T01:04:26.554Z,0.00
2023-02-17T01:05:26.468Z,0.00
2023-02-17T01:06:26.444Z,0.00
2023-02-17T01:07:26.430Z,0.00
2023-02-17T01:08:26.406Z,0.00
2023-02-17T01:09:26.394Z,0.00
2023-02-17T01:10:26.375Z,0.00
2023-02-17T01:11:26.372Z,0.00
2023-02-17T01:12:26.344Z,0.00
2023-02-17T01:13:26.325Z,0.00
2023-02-17T01:14:26.314Z,0.00
2023-02-17T01:15:26.300Z,0.00
2023-02-17T01:16:26.324Z,0.00
2023-02-17T01:17:26.264Z,0.00
2023-02-17T01:18:26.242Z,0.00
2023-02-17T01:19:26.227Z,0.00
2023-02-17T01:20:26.224Z,0.00
2023-02-17T01:21:26.203Z,0.00
2023-02-17T01:22:26.181Z,0.00
2023-02-17T01:23:26.164Z,0.00
2023-02-17T01:24:26.163Z,0.00
2023-02-17T01:25:26.131Z,0.00
2023-02-17T01:26:26.118Z,0.00
2023-02-17T01:27:26.096Z,0.00
2023-02-17T01:28:26.081Z,0.00
2023-02-17T01:29:26.064Z,0.00
2023-02-17T01:30:26.077Z,0.00
2023-02-17T01:31:26.093Z,0.00
2023-02-17T01:32:26.050Z,0.00
2023-02-17T01:33:26.000Z,0.00
2023-02-17T01:34:25.980Z,0.00
2023-02-17T01:35:25.973Z,0.00
2023-02-17T01:36:25.949Z,0.00
2023-02-17T01:37:25.943Z,0.00
2023-02-17T01:38:25.921Z,0.00
2023-02-17T01:39:25.905Z,0.00
2023-02-17T01:40:25.885Z,0.00
2023-02-17T01:41:25.872Z,0.00
2023-02-17T01:42:25.853Z,0.00
2023-02-17T01:43:25.857Z,0.00
2023-02-17T01:44:25.821Z,0.00
2023-02-17T01:45:25.825Z,0.00
2023-02-17T01:46:25.812Z,0.00
2023-02-17T01:47:25.767Z,0.00
2023-02-17T01:48:25.755Z,0.00
2023-02-17T01:49:25.735Z,0.00
2023-02-17T01:50:25.723Z,0.00
2023-02-17T01:51:25.702Z,0.00
2023-02-17T01:52:25.685Z,0.00
2023-02-17T01:53:25.674Z,0.00
2023-02-17T01:54:25.650Z,0.00
2023-02-17T01:55:25.642Z,0.00
2023-02-17T01:56:25.624Z,0.00
2023-02-17T01:57:25.605Z,0.00
2023-02-17T01:58:25.594Z,0.00
2023-02-17T01:59:25.574Z,0.00
2023-02-17T02:00:25.557Z,0.00
2023-02-17T02:01:25.535Z,0.00
2023-02-17T02:02:25.600Z,0.00
2023-02-17T02:03:25.501Z,0.00
2023-02-17T02:04:25.502Z,0.00
2023-02-17T02:05:25.474Z,0.00
2023-02-17T02:06:25.457Z,0.00
2023-02-17T02:07:25.434Z,0.00
2023-02-17T02:08:25.419Z,0.00
2023-02-17T02:09:25.405Z,0.00
2023-02-17T02:10:25.392Z,0.00
2023-02-17T02:11:25.373Z,0.00
2023-02-17T02:12:25.365Z,0.00
2023-02-17T02:13:25.348Z,0.00
2023-02-17T02:14:25.331Z,0.00
2023-02-17T02:15:25.312Z,0.00
2023-02-17T02:16:25.322Z,0.00
2023-02-17T02:17:25.277Z,0.00
2023-02-17T02:18:25.262Z,0.00
2023-02-17T02:19:25.245Z,0.00
2023-02-17T02:20:25.233Z,0.00
2023-02-17T02:21:25.222Z,0.00
2023-02-17T02:22:25.199Z,0.00
2023-02-17T02:23:25.200Z,0.00
2023-02-17T02:24:25.172Z,0.00
2023-02-17T02:25:25.152Z,0.00
2023-02-17T02:26:25.139Z,0.00
2023-02-17T02:27:25.128Z,0.00
2023-02-17T02:28:25.106Z,0.00
2023-02-17T02:29:25.086Z,0.00
2023-02-17T02:30:25.100Z,0.00
2023-02-17T02:31:25.143Z,0.00
2023-02-17T02:32:25.043Z,0.00
2023-02-17T02:33:25.025Z,0.00
2023-02-17T02:34:25.010Z,0.00
2023-02-17T02:35:24.990Z,0.00
2023-02-17T02:36:24.977Z,0.00
2023-02-17T02:37:24.970Z,0.00
2023-02-17T02:38:24.940Z,0.00
2023-02-17T02:39:24.926Z,0.00
2023-02-17T02:40:24.910Z,0.00
2023-02-17T02:41:24.891Z,0.00
2023-02-17T02:42:24.877Z,0.00
2023-02-17T02:43:24.861Z,0.00
2023-02-17T02:44:24.842Z,0.00
2023-02-17T02:45:24.861Z,0.00
2023-02-17T02:46:24.810Z,0.00
2023-02-17T02:47:24.791Z,0.00
2023-02-17T02:48:24.780Z,0.00
2023-02-17T02:49:24.759Z,0.00
2023-02-17T02:50:24.748Z,0.00
2023-02-17T02:51:24.728Z,0.00
2023-02-17T02:52:24.712Z,0.00
2023-02-17T02:53:24.721Z,0.00
2023-02-17T02:54:24.689Z,0.00
2023-02-17T02:55:24.673Z,0.00
2023-02-17T02:56:24.650Z,0.00
2023-02-17T02:57:24.640Z,0.00
2023-02-17T02:58:24.618Z,0.00
2023-02-17T02:59:24.596Z,0.00
2023-02-17T03:00:24.586Z,0.00
2023-02-17T03:01:24.590Z,0.00
2023-02-17T03:02:24.551Z,0.00
2023-02-17T03:03:24.537Z,0.00
2023-02-17T03:04:24.518Z,0.00
2023-02-17T03:05:24.500Z,0.00
2023-02-17T03:06:24.517Z,0.00
2023-02-17T03:07:24.529Z,0.00
2023-02-17T03:08:24.455Z,0.00
2023-02-17T03:09:24.437Z,0.00
2023-02-17T03:10:24.429Z,0.00
2023-02-17T03:11:24.400Z,0.00
2023-02-17T03:12:24.387Z,0.00
2023-02-17T03:13:24.370Z,0.00
2023-02-17T03:14:24.369Z,0.00
2023-02-17T03:15:24.340Z,0.00
2023-02-17T03:16:24.406Z,0.00
2023-02-17T03:17:24.303Z,0.00
2023-02-17T03:18:24.288Z,0.00
2023-02-17T03:19:24.273Z,0.00
2023-02-17T03:20:24.270Z,0.00
2023-02-17T03:21:24.246Z,0.00
2023-02-17T03:22:24.226Z,0.00
2023-02-17T03:23:24.212Z,0.00
2023-02-17T03:24:24.197Z,0.00
2023-02-17T03:25:24.179Z,0.00
2023-02-17T03:26:24.158Z,0.00
2023-02-17T03:27:24.142Z,0.00
2023-02-17T03:28:24.129Z,0.00
2023-02-17T03:29:24.112Z,0.00
2023-02-17T03:30:24.158Z,0.00
2023-02-17T03:31:24.133Z,0.00
2023-02-17T03:32:24.099Z,0.00
2023-02-17T03:33:24.045Z,0.00
2023-02-17T03:34:24.043Z,0.00
2023-02-17T03:35:24.006Z,0.00
2023-02-17T03:36:23.996Z,0.00
2023-02-17T03:37:23.979Z,0.00
2023-02-17T03:38:23.964Z,0.00
2023-02-17T03:39:23.943Z,0.00
2023-02-17T03:40:23.930Z,0.00
2023-02-17T03:41:23.918Z,0.00
2023-02-17T03:42:23.909Z,0.00
2023-02-17T03:43:23.902Z,0.00
2023-02-17T03:44:23.877Z,0.00
2023-02-17T03:45:23.849Z,0.00
2023-02-17T03:46:23.838Z,0.00
2023-02-17T03:47:23.817Z,0.00
2023-02-17T03:48:23.801Z,0.00
2023-02-17T03:49:23.784Z,0.00
2023-02-17T03:50:23.768Z,0.00
2023-02-17T03:51:23.754Z,0.00
2023-02-17T03:52:23.737Z,0.00
2023-02-17T03:53:23.716Z,0.00
2023-02-17T03:54:23.717Z,0.00
2023-02-17T03:55:23.680Z,0.00
2023-02-17T03:56:23.669Z,0.00
2023-02-17T03:57:23.653Z,0.00
2023-02-17T03:58:23.652Z,0.00
2023-02-17T03:59:23.615Z,0.00
2023-02-17T04:00:23.625Z,0.00
2023-02-17T04:01:23.616Z,0.00
2023-02-17T04:02:23.573Z,0.00
2023-02-17T04:03:23.555Z,0.00
2023-02-17T04:04:23.629Z,0.00
2023-02-17T04:05:23.522Z,0.00
2023-02-17T04:06:23.520Z,0.00
2023-02-17T04:07:23.491Z,0.00
2023-02-17T04:08:23.473Z,0.00
2023-02-17T04:09:23.450Z,0.00
2023-02-17T04:10:23.434Z,0.00
2023-02-17T04:11:23.418Z,0.00
2023-02-17T04:12:23.406Z,0.00
2023-02-17T04:13:23.390Z,0.00
2023-02-17T04:14:23.380Z,0.00
2023-02-17T04:15:23.400Z,0.00
2023-02-17T04:16:23.340Z,0.00
2023-02-17T04:17:23.326Z,0.00
2023-02-17T04:18:23.316Z,0.00
2023-02-17T04:19:23.293Z,0.00
2023-02-17T04:20:23.270Z,0.00
2023-02-17T04:21:23.273Z,0.00
2023-02-17T04:22:23.240Z,0.00
2023-02-17T04:23:23.223Z,0.00
2023-02-17T04:24:23.213Z,0.00
2023-02-17T04:25:23.193Z,0.00
2023-02-17T04:26:23.184Z,0.00
2023-02-17T04:27:23.159Z,0.00
2023-02-17T04:28:23.143Z,0.00
2023-02-17T04:29:23.128Z,0.00
2023-02-17T04:30:23.128Z,0.00
2023-02-17T04:31:23.216Z,0.00
2023-02-17T04:32:23.082Z,0.00
2023-02-17T04:33:23.071Z,0.00
2023-02-17T04:34:23.045Z,0.00
2023-02-17T04:35:23.027Z,0.00
2023-02-17T04:36:23.020Z,0.00
2023-02-17T04:37:23.029Z,0.00
2023-02-17T04:38:22.980Z,0.00
2023-02-17T04:39:22.970Z,0.00
2023-02-17T04:40:22.966Z,0.00
2023-02-17T04:41:22.933Z,0.00
2023-02-17T04:42:22.918Z,0.00
2023-02-17T04:43:22.903Z,0.00
2023-02-17T04:44:22.889Z,0.00
2023-02-17T04:45:22.876Z,0.00
2023-02-17T04:46:22.878Z,0.00
2023-02-17T04:47:22.838Z,0.00
2023-02-17T04:48:22.829Z,0.00
2023-02-17T04:49:22.803Z,0.00
2023-02-17T04:50:22.806Z,0.00
2023-02-17T04:51:22.776Z,0.00
2023-02-17T04:52:22.759Z,0.00
2023-02-17T04:53:22.744Z,0.00
2023-02-17T04:54:22.736Z,4.00
2023-02-17T04:55:22.711Z,0.00
2023-02-17T04:56:22.695Z,0.00
2023-02-17T04:57:22.674Z,0.00
2023-02-17T04:58:22.660Z,0.00
2023-02-17T04:59:24.731Z,0.00
2023-02-17T05:00:22.628Z,0.00
2023-02-17T05:01:22.629Z,0.00
2023-02-17T05:02:22.605Z,0.00
2023-02-17T05:03:22.580Z,0.00
2023-02-17T05:04:22.651Z,0.00
2023-02-17T05:05:22.545Z,0.00
2023-02-17T05:06:22.539Z,0.00
2023-02-17T05:07:22.517Z,0.00
2023-02-17T05:08:22.511Z,0.00
2023-02-17T05:09:22.490Z,0.00
2023-02-17T05:10:24.001Z,0.00
2023-02-17T05:11:22.447Z,0.00
2023-02-17T05:12:22.433Z,0.00
2023-02-17T05:13:22.428Z,0.00
2023-02-17T05:14:22.402Z,0.00
2023-02-17T05:15:22.429Z,0.00
2023-02-17T05:16:22.452Z,0.00
2023-02-17T05:17:22.353Z,0.00
2023-02-17T05:18:22.342Z,0.00
2023-02-17T05:19:22.325Z,0.00
2023-02-17T05:20:22.307Z,0.00
2023-02-17T05:21:22.297Z,0.00
2023-02-17T05:22:22.274Z,0.00
2023-02-17T05:23:22.259Z,0.00
2023-02-17T05:52:32.168Z,0.00
2023-02-17T05:53:32.578Z,0.00
2023-02-17T05:55:25.801Z,0.00
2023-02-17T05:56:26.227Z,0.00
2023-02-17T05:58:30.514Z,0.00
2023-02-17T05:59:29.971Z,0.00
2023-02-17T06:01:37.133Z,0.00
2023-02-17T06:02:34.631Z,0.00
2023-02-17T06:03:34.602Z,0.00
2023-02-17T06:04:34.974Z,0.00
2023-02-17T06:05:34.967Z,0.00
2023-02-17T06:06:34.507Z,0.00
2023-02-17T06:07:34.501Z,0.00
2023-02-17T06:08:34.470Z,0.00
2023-02-17T06:09:34.454Z,0.00
2023-02-17T06:10:34.436Z,0.00
2023-02-17T06:11:34.425Z,0.00
2023-02-17T06:12:34.411Z,0.00
2023-02-17T06:13:34.399Z,0.00
2023-02-17T06:14:34.372Z,0.00
2023-02-17T06:15:34.364Z,0.00
2023-02-17T06:16:34.371Z,0.00
2023-02-17T06:17:34.340Z,0.00
2023-02-17T06:18:34.309Z,0.00
2023-02-17T06:19:34.294Z,0.00
2023-02-17T06:20:34.286Z,4.00
2023-02-17T06:21:34.294Z,4.00
2023-02-17T06:22:34.249Z,0.00
2023-02-17T06:23:34.235Z,0.00
2023-02-17T06:24:34.215Z,4.00
2023-02-17T06:25:34.223Z,4.00
2023-02-17T06:26:34.187Z,8.00
2023-02-17T06:27:34.172Z,4.00
2023-02-17T06:28:35.133Z,4.00
2023-02-17T06:29:34.138Z,4.00
2023-02-17T06:30:34.129Z,4.00
2023-02-17T06:31:34.236Z,8.00
2023-02-17T06:32:34.083Z,8.00
2023-02-17T06:33:34.068Z,8.00
2023-02-17T06:34:34.056Z,8.00
2023-02-17T06:35:34.043Z,8.00
2023-02-17T06:36:34.032Z,12.00
2023-02-17T06:37:34.005Z,12.00
2023-02-17T06:38:33.988Z,12.00
2023-02-17T06:39:33.977Z,16.00
2023-02-17T06:40:33.956Z,16.00
2023-02-17T06:41:33.947Z,16.00
2023-02-17T06:42:33.937Z,12.00
2023-02-17T06:43:33.909Z,16.00
2023-02-17T06:44:33.892Z,20.00
2023-02-17T06:45:33.913Z,16.00
2023-02-17T06:46:33.863Z,20.00
2023-02-17T06:47:33.856Z,24.00
2023-02-17T06:48:33.838Z,24.00
2023-02-17T06:49:33.812Z,28.00
2023-02-17T06:50:33.793Z,24.00
2023-02-17T06:51:33.784Z,28.00
2023-02-17T06:52:33.760Z,28.00
2023-02-17T06:53:33.745Z,28.00
2023-02-17T06:54:33.728Z,28.00
2023-02-17T06:55:33.723Z,36.00
2023-02-17T06:56:33.696Z,32.00
2023-02-17T06:57:33.684Z,32.00
2023-02-17T06:58:33.666Z,36.00
2023-02-17T06:59:33.663Z,40.00
2023-02-17T07:00:33.632Z,36.00
2023-02-17T07:01:33.625Z,44.00
2023-02-17T07:02:33.708Z,48.00
2023-02-17T07:03:33.596Z,52.00
2023-02-17T07:04:33.569Z,52.00
2023-02-17T07:05:33.561Z,52.00
2023-02-17T07:06:33.550Z,56.00
2023-02-17T07:07:33.528Z,60.00
2023-02-17T07:08:34.189Z,60.00
2023-02-17T07:09:33.495Z,64.00
2023-02-17T07:10:33.487Z,68.00
2023-02-17T07:11:33.480Z,60.00
2023-02-17T07:12:33.442Z,64.00
2023-02-17T07:13:33.430Z,60.00
2023-02-17T07:14:33.421Z,64.00
2023-02-17T07:15:33.410Z,68.00
2023-02-17T07:16:33.441Z,68.00
2023-02-17T07:17:33.370Z,68.00
2023-02-17T07:18:33.351Z,64.00
2023-02-17T07:19:33.337Z,72.00
2023-02-17T07:20:33.320Z,84.00
2023-02-17T07:21:33.308Z,80.00
2023-02-17T07:22:33.291Z,72.00
2023-02-17T07:23:33.272Z,88.00
2023-02-17T07:24:33.254Z,72.00
2023-02-17T07:25:33.239Z,80.00
2023-02-17T07:26:33.230Z,84.00
2023-02-17T07:27:33.217Z,72.00
2023-02-17T07:28:33.191Z,76.00
2023-02-17T07:29:33.179Z,76.00
2023-02-17T07:30:33.232Z,88.00
2023-02-17T07:31:33.368Z,80.00
2023-02-17T07:32:33.130Z,88.00
2023-02-17T07:33:33.120Z,100.00
2023-02-17T07:34:33.115Z,96.00
2023-02-17T07:35:33.089Z,96.00
2023-02-17T07:36:33.109Z,92.00
2023-02-17T07:37:33.054Z,92.00
2023-02-17T07:38:33.553Z,112.00
2023-02-17T07:39:33.014Z,108.00
2023-02-17T07:40:33.015Z,112.00
2023-02-17T07:41:32.994Z,108.00
2023-02-17T07:42:32.972Z,112.00
2023-02-17T07:43:32.958Z,112.00
2023-02-17T07:44:32.934Z,112.00
2023-02-17T07:45:32.947Z,128.00
2023-02-17T07:46:32.916Z,132.00
2023-02-17T07:47:32.891Z,132.00
2023-02-17T07:48:32.865Z,128.00
2023-02-17T07:49:32.859Z,128.00
2023-02-17T07:50:32.830Z,144.00
2023-02-17T07:51:32.820Z,152.00
2023-02-17T07:52:32.816Z,152.00
2023-02-17T07:53:32.787Z,156.00
2023-02-17T07:54:32.767Z,148.00
2023-02-17T07:55:32.757Z,148.00
2023-02-17T07:56:32.742Z,152.00
2023-02-17T07:57:32.728Z,176.00
2023-02-17T07:58:32.701Z,164.00
2023-02-17T07:59:32.690Z,164.00
2023-02-17T08:00:32.673Z,164.00
2023-02-17T08:01:32.657Z,168.00
2023-02-17T08:02:32.641Z,168.00
2023-02-17T08:03:32.628Z,188.00
2023-02-17T08:04:32.652Z,176.00
2023-02-17T08:05:32.590Z,172.00
2023-02-17T08:06:32.581Z,176.00
2023-02-17T08:07:32.558Z,192.00
2023-02-17T08:08:32.539Z,208.00
2023-02-17T08:09:32.525Z,164.00
2023-02-17T08:10:32.507Z,188.00
2023-02-17T08:11:32.490Z,160.00
2023-02-17T08:12:32.474Z,144.00
2023-02-17T08:13:32.472Z,152.00
2023-02-17T08:14:32.447Z,144.00
2023-02-17T08:15:32.443Z,148.00
2023-02-17T08:16:32.438Z,152.00
2023-02-17T08:17:32.406Z,152.00
2023-02-17T08:18:36.220Z,140.00
2023-02-17T08:19:46.994Z,148.00
2023-02-17T08:20:34.274Z,168.00
2023-02-17T08:21:32.327Z,164.00
2023-02-17T08:22:32.341Z,160.00
2023-02-17T08:23:32.299Z,168.00
2023-02-17T08:24:32.293Z,156.00
2023-02-17T08:25:32.300Z,152.00
2023-02-17T08:26:32.248Z,168.00
2023-02-17T08:27:32.246Z,160.00
2023-02-17T08:28:32.215Z,164.00
2023-02-17T08:29:32.209Z,184.00
2023-02-17T08:30:32.353Z,188.00
2023-02-17T08:31:32.358Z,188.00
2023-02-17T08:32:32.152Z,200.00
2023-02-17T08:33:32.144Z,220.00
2023-02-17T08:34:32.152Z,216.00
2023-02-17T08:35:32.119Z,224.00
2023-02-17T08:36:32.107Z,204.00
2023-02-17T08:37:32.115Z,188.00
2023-02-17T08:38:32.076Z,184.00
2023-02-17T08:39:32.041Z,184.00
2023-02-17T08:40:32.027Z,184.00
2023-02-17T08:41:32.005Z,220.00
2023-02-17T08:42:31.995Z,208.00
2023-02-17T08:43:32.015Z,228.00
2023-02-17T08:44:31.969Z,248.00
2023-02-17T08:45:31.945Z,208.00
2023-02-17T08:46:31.954Z,200.00
2023-02-17T08:47:31.976Z,184.00
2023-02-17T08:48:31.931Z,192.00
2023-02-17T08:49:31.887Z,236.00
2023-02-17T08:50:31.887Z,248.00
2023-02-17T08:51:31.852Z,264.00
2023-02-17T08:52:31.855Z,260.00
2023-02-17T08:53:31.817Z,248.00
2023-02-17T08:54:31.836Z,300.00
2023-02-17T08:55:40.851Z,320.00
2023-02-17T08:56:31.790Z,316.00
2023-02-17T08:57:31.761Z,332.00
2023-02-17T08:58:31.734Z,352.00
2023-02-17T08:59:31.723Z,360.00
2023-02-17T09:00:31.715Z,324.00
2023-02-17T09:01:31.735Z,304.00
2023-02-17T09:02:31.679Z,292.00
2023-02-17T09:03:31.683Z,280.00
2023-02-17T09:04:31.673Z,288.00
2023-02-17T09:05:31.633Z,288.00
2023-02-17T09:06:31.656Z,312.00
2023-02-17T09:07:31.594Z,356.00
2023-02-17T09:08:31.621Z,380.00
2023-02-17T09:09:31.652Z,388.00
2023-02-17T09:10:31.549Z,360.00
2023-02-17T09:11:31.537Z,372.00
2023-02-17T09:12:31.519Z,388.00
2023-02-17T09:13:31.504Z,392.00
2023-02-17T09:14:31.483Z,392.00
2023-02-17T09:15:31.528Z,396.00
2023-02-17T09:16:31.447Z,408.00
2023-02-17T09:17:31.434Z,380.00
2023-02-17T09:18:31.420Z,384.00
2023-02-17T09:19:31.423Z,376.00
2023-02-17T09:20:31.446Z,356.00
2023-02-17T09:21:31.392Z,396.00
2023-02-17T09:22:32.555Z,424.00
2023-02-17T09:23:31.368Z,412.00
2023-02-17T09:24:31.401Z,416.00
2023-02-17T09:25:31.307Z,412.00
2023-02-17T09:26:31.295Z,384.00
2023-02-17T09:27:31.277Z,368.00
2023-02-17T09:28:31.301Z,344.00
2023-02-17T09:29:31.243Z,344.00
2023-02-17T09:30:31.310Z,364.00
2023-02-17T09:31:31.357Z,412.00
2023-02-17T09:32:31.231Z,428.00
2023-02-17T09:33:31.189Z,436.00
2023-02-17T09:34:31.204Z,424.00
2023-02-17T09:35:31.159Z,440.00
2023-02-17T09:36:31.150Z,464.00
2023-02-17T09:37:31.134Z,480.00
2023-02-17T09:38:31.111Z,528.00
2023-02-17T09:39:31.084Z,556.00
2023-02-17T09:40:31.104Z,584.00
2023-02-17T09:41:31.113Z,556.00
2023-02-17T09:42:31.040Z,572.00
2023-02-17T09:43:31.035Z,588.00
2023-02-17T09:44:31.046Z,576.00
2023-02-17T09:45:30.994Z,552.00
2023-02-17T09:46:30.988Z,508.00
2023-02-17T09:47:31.034Z,516.00
2023-02-17T09:48:31.000Z,540.00
2023-02-17T09:49:30.980Z,528.00
2023-02-17T09:50:30.954Z,504.00
2023-02-17T09:51:30.934Z,460.00
2023-02-17T09:52:30.895Z,460.00
2023-02-17T09:53:30.882Z,436.00
2023-02-17T09:54:30.877Z,420.00
2023-02-17T09:55:30.859Z,400.00
2023-02-17T09:56:32.631Z,436.00
2023-02-17T09:57:30.798Z,436.00
2023-02-17T09:58:30.795Z,368.00
2023-02-17T09:59:30.766Z,388.00
2023-02-17T10:00:30.808Z,400.00
2023-02-17T10:01:30.786Z,508.00
2023-02-17T10:02:30.756Z,568.00
2023-02-17T10:03:30.726Z,472.00
2023-02-17T10:04:30.852Z,396.00
2023-02-17T10:05:30.696Z,380.00
2023-02-17T10:06:30.724Z,392.00
2023-02-17T10:07:30.689Z,432.00
2023-02-17T10:08:30.641Z,392.00
2023-02-17T10:09:30.631Z,420.00
2023-02-17T10:10:30.610Z,484.00
2023-02-17T10:11:30.569Z,516.00
2023-02-17T10:12:30.553Z,568.00
2023-02-17T10:13:30.540Z,512.00
2023-02-17T10:14:30.523Z,536.00
2023-02-17T10:15:30.530Z,536.00
2023-02-17T10:16:30.556Z,560.00
2023-02-17T10:17:30.526Z,572.00
2023-02-17T10:18:30.500Z,548.00
2023-02-17T10:19:30.531Z,548.00
2023-02-17T10:20:30.503Z,572.00
2023-02-17T10:21:30.404Z,640.00
2023-02-17T10:22:30.399Z,596.00
2023-02-17T10:23:30.394Z,560.00
2023-02-17T10:24:30.357Z,512.00
2023-02-17T10:25:30.347Z,532.00
2023-02-17T10:26:30.346Z,616.00
2023-02-17T10:27:30.323Z,616.00
2023-02-17T10:28:30.296Z,592.00
2023-02-17T10:29:30.279Z,556.00
2023-02-17T10:30:30.327Z,532.00
2023-02-17T10:31:30.509Z,536.00
2023-02-17T10:32:30.377Z,508.00
2023-02-17T10:33:30.219Z,476.00
2023-02-17T10:34:30.306Z,448.00
2023-02-17T10:35:30.200Z,456.00
2023-02-17T10:36:30.169Z,492.00
2023-02-17T10:37:30.246Z,492.00
2023-02-17T10:38:30.139Z,492.00
2023-02-17T10:39:30.151Z,492.00
2023-02-17T10:40:30.109Z,460.00
2023-02-17T10:41:30.090Z,504.00
2023-02-17T10:42:30.084Z,488.00
2023-02-17T10:43:30.060Z,444.00
2023-02-17T10:44:30.115Z,436.00
2023-02-17T10:45:30.026Z,452.00
2023-02-17T10:46:30.085Z,532.00
2023-02-17T10:47:30.017Z,572.00
2023-02-17T10:48:29.987Z,596.00
2023-02-17T10:49:29.958Z,592.00
2023-02-17T10:50:29.953Z,652.00
2023-02-17T10:51:29.930Z,684.00
2023-02-17T10:52:29.914Z,604.00
2023-02-17T10:53:29.916Z,564.00
2023-02-17T10:54:29.889Z,624.00
2023-02-17T10:55:29.873Z,548.00
2023-02-17T10:56:29.860Z,544.00
2023-02-17T10:57:29.833Z,528.00
2023-02-17T10:58:29.820Z,560.00
2023-02-17T10:59:29.799Z,600.00
2023-02-17T11:00:29.803Z,540.00
2023-02-17T11:01:29.780Z,524.00
2023-02-17T11:02:29.753Z,508.00
2023-02-17T11:03:29.782Z,500.00
2023-02-17T11:04:29.736Z,504.00
2023-02-17T11:05:29.732Z,520.00
2023-02-17T11:06:29.696Z,500.00
2023-02-17T11:07:29.678Z,452.00
2023-02-17T11:08:29.671Z,452.00
2023-02-17T11:09:29.647Z,460.00
2023-02-17T11:10:29.629Z,428.00
2023-02-17T11:11:29.617Z,428.00
2023-02-17T11:12:29.605Z,432.00
2023-02-17T11:13:29.587Z,432.00
2023-02-17T11:14:29.570Z,404.00
2023-02-17T11:15:29.547Z,408.00
2023-02-17T11:16:29.587Z,420.00
2023-02-17T11:17:29.517Z,420.00
2023-02-17T11:18:29.532Z,376.00
2023-02-17T11:19:29.492Z,364.00
2023-02-17T11:20:29.470Z,344.00
2023-02-17T11:21:29.456Z,328.00
2023-02-17T11:22:29.477Z,316.00
2023-02-17T11:23:29.457Z,304.00
2023-02-17T11:24:29.417Z,308.00
2023-02-17T11:25:29.428Z,304.00
2023-02-17T11:26:29.414Z,320.00
2023-02-17T11:27:29.490Z,320.00
2023-02-17T11:28:29.361Z,360.00
2023-02-17T11:29:29.341Z,352.00
2023-02-17T11:30:29.437Z,376.00
2023-02-17T11:31:29.461Z,392.00
2023-02-17T11:32:29.288Z,376.00
2023-02-17T11:33:29.275Z,428.00
2023-02-17T11:34:29.263Z,472.00
2023-02-17T11:35:29.269Z,448.00
2023-02-17T11:36:29.226Z,416.00
2023-02-17T11:37:29.211Z,400.00
2023-02-17T11:38:29.200Z,396.00
2023-02-17T11:39:29.183Z,392.00
2023-02-17T11:40:29.171Z,356.00
2023-02-17T11:41:29.150Z,340.00
2023-02-17T11:42:29.166Z,344.00
2023-02-17T11:43:29.122Z,368.00
2023-02-17T11:44:29.114Z,456.00
2023-02-17T11:45:29.179Z,468.00
2023-02-17T11:46:29.092Z,516.00
2023-02-17T11:47:29.075Z,556.00
2023-02-17T11:48:29.042Z,520.00
2023-02-17T11:49:29.036Z,548.00
2023-02-17T11:50:40.830Z,580.00
2023-02-17T11:51:28.998Z,684.00
2023-02-17T11:52:28.981Z,692.00
2023-02-17T11:53:28.961Z,756.00
2023-02-17T11:54:28.949Z,668.00
2023-02-17T11:55:28.928Z,624.00
2023-02-17T11:56:28.912Z,616.00
2023-02-17T11:57:28.895Z,648.00
2023-02-17T11:58:28.889Z,688.00
2023-02-17T11:59:28.869Z,716.00
2023-02-17T12:00:28.856Z,708.00
2023-02-17T12:01:28.851Z,800.00
2023-02-17T12:02:28.822Z,960.00
2023-02-17T12:03:28.935Z,1032.00
2023-02-17T12:04:28.790Z,1048.00
2023-02-17T12:05:28.774Z,1172.00
2023-02-17T12:06:28.758Z,1280.00
2023-02-17T12:07:28.749Z,1568.00
2023-02-17T12:08:28.724Z,1292.00
2023-02-17T12:09:28.710Z,1384.00
2023-02-17T12:10:28.697Z,1380.00
2023-02-17T12:11:28.680Z,1196.00
2023-02-17T12:12:28.665Z,1232.00
2023-02-17T12:13:28.653Z,1360.00
2023-02-17T12:14:31.137Z,1212.00
2023-02-17T12:15:28.620Z,1092.00
2023-02-17T12:16:28.636Z,948.00
2023-02-17T12:17:28.602Z,704.00
2023-02-17T12:18:28.575Z,744.00
2023-02-17T12:19:28.561Z,808.00
2023-02-17T12:20:28.539Z,716.00
2023-02-17T12:21:28.539Z,720.00
2023-02-17T12:22:28.513Z,780.00
2023-02-17T12:23:28.501Z,1220.00
2023-02-17T12:24:28.484Z,1116.00
2023-02-17T12:25:28.467Z,1024.00
2023-02-17T12:26:28.450Z,1092.00
2023-02-17T12:27:28.432Z,1048.00
2023-02-17T12:28:28.420Z,912.00
2023-02-17T12:29:28.402Z,960.00
2023-02-17T12:30:28.543Z,932.00
2023-02-17T12:31:28.501Z,940.00
2023-02-17T12:32:28.358Z,1176.00
2023-02-17T12:33:28.349Z,1204.00
2023-02-17T12:34:28.332Z,1124.00
2023-02-17T12:35:28.314Z,1108.00
2023-02-17T12:36:28.299Z,1004.00
2023-02-17T12:37:28.284Z,1164.00
2023-02-17T12:38:28.990Z,1124.00
2023-02-17T12:39:28.261Z,1088.00
2023-02-17T12:40:28.241Z,1080.00
2023-02-17T12:41:28.223Z,1104.00
2023-02-17T12:42:28.205Z,1020.00
2023-02-17T12:43:28.228Z,936.00
2023-02-17T12:44:28.176Z,916.00
2023-02-17T12:45:28.166Z,968.00
2023-02-17T12:46:28.222Z,964.00
2023-02-17T12:47:28.141Z,996.00
2023-02-17T12:48:28.123Z,916.00
2023-02-17T12:49:28.118Z,1080.00
2023-02-17T12:50:28.099Z,1100.00
2023-02-17T12:51:28.077Z,892.00
2023-02-17T12:52:28.057Z,1024.00
2023-02-17T12:53:28.055Z,832.00
2023-02-17T12:54:28.027Z,872.00
2023-02-17T12:55:28.011Z,924.00
2023-02-17T12:56:28.046Z,840.00
2023-02-17T12:57:27.990Z,900.00
2023-02-17T12:58:27.974Z,820.00
2023-02-17T12:59:27.952Z,736.00
2023-02-17T13:00:27.939Z,884.00
2023-02-17T13:01:27.957Z,836.00
2023-02-17T13:02:27.936Z,800.00
2023-02-17T13:03:27.901Z,1216.00
2023-02-17T13:04:27.884Z,1052.00
2023-02-17T13:05:27.874Z,1600.00
2023-02-17T13:06:27.870Z,1284.00
2023-02-17T13:07:28.699Z,1564.00
2023-02-17T13:08:27.822Z,1344.00
2023-02-17T13:09:27.808Z,1988.00
2023-02-17T13:10:27.819Z,1716.00
2023-02-17T13:11:27.787Z,2540.00
2023-02-17T13:12:27.790Z,2668.00
2023-02-17T13:13:27.745Z,2556.00
2023-02-17T13:14:27.797Z,2676.00
2023-02-17T13:15:27.718Z,2404.00
2023-02-17T13:16:27.708Z,2316.00
2023-02-17T13:17:27.720Z,2384.00
2023-02-17T13:18:27.677Z,2120.00
2023-02-17T13:19:27.664Z,1564.00
2023-02-17T13:20:27.677Z,1596.00
2023-02-17T13:21:27.636Z,1332.00
2023-02-17T13:22:27.613Z,1292.00